Terminal Aerodrome Forecast
Issued by NWS Paducah, KY

Current Version | Previous Version | Text Only | Print | Product List | Glossary On
Versions: 1 2 3 4 5 6 7 8 9 10 11 12 13 14 15 16 17 18 19 20 21 22
971
FTUS43 KPAH 121927 AAA
TAFEVV
TAF AMD
KEVV 121927Z 1219/1318 31010G18KT P6SM OVC020
     FM130300 32010KT P6SM SCT020
     FM131500 35008KT P6SM SKC=

USA.gov is the U.S. government's official web portal to all federal, state and local government web resources and services.